Time;durP1;ratioP1;P1;durP2;ratioP2;P2;SDS_P1;SDS_P2;PMS_P1;PMS_P2;Temp;Humidity;BMP_temperature;BMP_pressure;BME280_temperature;BME280_humidity;BME280_pressure;Samples;Min_cycle;Max_cycle;Signal;HPM_P1;HPM_P2
2023/01/23 00:01:38;;;;;;;13.10;5.70;;;;;;;1.42;93.94;96409.41;106745;1275;25214;-83
2023/01/23 00:04:08;;;;;;;12.40;5.70;;;;;;;1.45;94.15;96415.76;106658;1275;22517;-83
2023/01/23 00:06:37;;;;;;;6.20;3.40;;;;;;;1.48;94.16;96419.15;106777;1275;22542;-83
2023/01/23 00:09:06;;;;;;;9.30;5.60;;;;;;;1.41;93.66;96434.73;106696;1275;24259;-82
2023/01/23 00:11:35;;;;;;;4.40;3.00;;;;;;;1.36;93.59;96435.25;106821;1275;24346;-83
2023/01/23 00:14:03;;;;;;;11.80;5.00;;;;;;;1.30;93.55;96436.29;106838;1275;22537;-83
2023/01/23 00:16:32;;;;;;;8.40;5.40;;;;;;;1.22;93.38;96431.73;106810;1275;22654;-83
2023/01/23 00:19:00;;;;;;;8.30;5.40;;;;;;;1.22;93.67;96426.34;106789;1275;23014;-83
2023/01/23 00:21:29;;;;;;;8.80;5.60;;;;;;;1.23;93.85;96426.20;106864;1275;22524;-83
2023/01/23 00:24:00;;;;;;;6.30;4.10;;;;;;;1.25;93.96;96427.47;106696;1275;22587;-83
2023/01/23 00:26:31;;;;;;;9.40;5.70;;;;;;;1.20;93.79;96425.26;106812;1275;22620;-82
2023/01/23 00:29:00;;;;;;;12.30;5.40;;;;;;;1.19;93.86;96421.73;106746;1275;25328;-82
2023/01/23 00:31:35;;;;;;;12.00;6.50;;;;;;;1.15;93.56;96424.39;106821;1275;23919;-82
2023/01/23 00:34:06;;;;;;;19.80;9.60;;;;;;;1.11;93.51;96428.23;106784;1275;25695;-81
2023/01/23 00:36:37;;;;;;;15.40;7.70;;;;;;;1.03;93.37;96428.36;106813;1275;25457;-82
2023/01/23 00:39:14;;;;;;;12.90;5.30;;;;;;;1.00;93.51;96432.41;106694;1275;22563;-83
2023/01/23 00:41:45;;;;;;;10.90;5.30;;;;;;;0.91;93.28;96441.32;106686;1275;22523;-83
2023/01/23 00:44:14;;;;;;;10.20;5.80;;;;;;;0.79;93.33;96451.69;106811;1275;22560;-83
2023/01/23 00:46:42;;;;;;;9.50;5.10;;;;;;;0.76;93.89;96457.11;106638;1275;22638;-83
2023/01/23 00:49:11;;;;;;;13.30;7.10;;;;;;;0.78;94.65;96461.70;106794;1275;22577;-83
2023/01/23 00:51:39;;;;;;;7.50;4.20;;;;;;;0.84;95.07;96460.30;106681;1275;22921;-83
2023/01/23 00:54:07;;;;;;;11.40;6.60;;;;;;;0.89;95.22;96462.19;106674;1275;24843;-83
2023/01/23 00:56:36;;;;;;;13.20;6.90;;;;;;;0.97;96.24;96471.30;106767;1275;24240;-83
2023/01/23 00:59:04;;;;;;;16.80;9.30;;;;;;;1.04;95.77;96470.98;106656;1275;24492;-83
2023/01/23 01:01:34;;;;;;;16.60;8.80;;;;;;;1.10;96.14;96469.81;106803;1275;22639;-83
2023/01/23 01:04:03;;;;;;;13.00;7.00;;;;;;;1.15;96.17;96461.29;106727;1275;23919;-83
2023/01/23 01:06:31;;;;;;;14.40;7.60;;;;;;;1.18;95.80;96450.32;106641;1275;25424;-83
2023/01/23 01:08:59;;;;;;;12.50;6.70;;;;;;;1.24;95.99;96448.95;106858;1275;22527;-83
2023/01/23 01:11:27;;;;;;;11.90;6.30;;;;;;;1.30;95.70;96446.34;106690;1275;23905;-83
2023/01/23 01:14:00;;;;;;;13.40;6.30;;;;;;;1.35;95.75;96444.92;106765;1275;23880;-83
2023/01/23 01:16:29;;;;;;;21.50;8.30;;;;;;;1.32;95.57;96442.08;106733;1275;25490;-83
2023/01/23 01:18:58;;;;;;;19.70;8.90;;;;;;;1.28;95.16;96445.59;106629;1275;25220;-83
2023/01/23 01:21:27;;;;;;;18.10;8.70;;;;;;;1.27;95.18;96442.79;106612;1275;22630;-83
2023/01/23 01:23:55;;;;;;;41.60;14.40;;;;;;;1.25;95.09;96442.55;106805;1275;25529;-83
2023/01/23 01:26:25;;;;;;;39.60;14.00;;;;;;;1.22;94.71;96449.22;106826;1275;23883;-83
2023/01/23 01:28:53;;;;;;;32.80;11.10;;;;;;;1.18;94.57;96450.66;106655;1275;24046;-83
2023/01/23 01:31:21;;;;;;;13.20;6.90;;;;;;;1.14;94.16;96447.92;106714;1275;25297;-83
2023/01/23 01:33:49;;;;;;;11.30;4.50;;;;;;;1.11;94.18;96455.29;106719;1275;25346;-83
2023/01/23 01:36:21;;;;;;;5.20;2.70;;;;;;;1.10;94.59;96466.69;106760;1275;22520;-83
2023/01/23 01:38:50;;;;;;;8.10;2.90;;;;;;;1.11;94.80;96459.95;106784;1275;24242;-83
2023/01/23 01:41:18;;;;;;;6.10;3.30;;;;;;;1.16;95.21;96459.93;106761;1275;22566;-83
2023/01/23 01:43:47;;;;;;;6.80;3.10;;;;;;;1.21;95.41;96455.06;106713;1275;22520;-83
2023/01/23 01:46:27;;;;;;;7.60;4.10;;;;;;;1.26;95.01;96457.33;106693;1275;23894;-83
2023/01/23 01:49:04;;;;;;;8.30;4.20;;;;;;;1.28;94.93;96463.27;106790;1275;24251;-83
2023/01/23 01:51:51;;;;;;;11.70;5.90;;;;;;;1.30;94.81;96457.95;106774;1275;22941;-83
2023/01/23 01:54:19;;;;;;;14.40;5.10;;;;;;;1.35;95.34;96460.55;106653;1275;25313;-83
2023/01/23 01:57:03;;;;;;;6.80;3.90;;;;;;;1.41;95.45;96464.36;106816;1275;22874;-84
2023/01/23 01:59:40;;;;;;;17.70;7.60;;;;;;;1.46;95.27;96468.34;106747;1266;22650;-83
2023/01/23 02:02:15;;;;;;;13.20;6.10;;;;;;;1.47;94.72;96466.79;106823;1275;24311;-83
2023/01/23 02:04:50;;;;;;;36.70;14.30;;;;;;;1.47;94.74;96467.49;106714;1275;26028;-83
2023/01/23 02:07:43;;;;;;;36.70;13.60;;;;;;;1.50;95.10;96467.58;106759;1275;24183;-82
2023/01/23 02:10:13;;;;;;;34.60;13.70;;;;;;;1.55;95.15;96464.44;106644;1275;22538;-82
2023/01/23 02:12:47;;;;;;;10.20;5.00;;;;;;;1.60;95.17;96464.22;106822;1275;24377;-82
2023/01/23 02:15:17;;;;;;;15.70;8.30;;;;;;;1.63;94.78;96456.85;106695;1275;22636;-81
2023/01/23 02:17:47;;;;;;;21.60;11.30;;;;;;;1.66;94.77;96449.67;106770;1275;22523;-78
2023/01/23 02:20:19;;;;;;;16.90;8.60;;;;;;;1.67;94.41;96456.66;106691;1275;22534;-82
2023/01/23 02:22:54;;;;;;;;;;;;;;;1.62;94.29;96457.70;106686;1275;22782;-82
2023/01/23 02:25:44;;;;;;;20.80;10.40;;;;;;;1.56;94.70;96460.33;107049;1275;23405;-82
2023/01/23 02:28:16;;;;;;;10.00;5.20;;;;;;;1.49;94.56;96461.14;106781;1275;25312;-82
2023/01/23 02:30:49;;;;;;;6.90;4.00;;;;;;;1.47;94.51;96454.13;106828;1275;22527;-82
2023/01/23 02:33:19;;;;;;;16.70;8.40;;;;;;;1.42;94.26;96452.27;106693;1275;25459;-82
2023/01/23 02:35:47;;;;;;;7.20;3.50;;;;;;;1.39;94.10;96454.27;106692;1275;22623;-82
2023/01/23 02:38:21;;;;;;;7.70;3.60;;;;;;;1.35;93.98;96452.59;106848;1275;22527;-82
2023/01/23 02:40:51;;;;;;;6.00;3.20;;;;;;;1.36;94.57;96451.36;106818;1275;22772;-82
2023/01/23 02:43:27;;;;;;;4.60;2.70;;;;;;;1.36;94.74;96452.77;106753;1275;25217;-82
2023/01/23 02:46:01;;;;;;;7.80;4.00;;;;;;;1.37;94.99;96456.63;106668;1275;22611;-82
2023/01/23 02:48:29;;;;;;;10.50;5.70;;;;;;;1.35;95.12;96466.61;106715;1275;25315;-82
2023/01/23 02:50:58;;;;;;;6.90;3.60;;;;;;;1.35;94.93;96458.45;106688;1275;24358;-82
2023/01/23 02:53:27;;;;;;;9.60;4.80;;;;;;;1.31;94.69;96455.91;106719;1275;22556;-82
2023/01/23 02:55:55;;;;;;;10.60;5.80;;;;;;;1.29;95.41;96463.81;106790;1275;23435;-82
2023/01/23 03:01:11;;;;;;;11.20;6.50;;;;;;;1.28;95.05;96469.16;106849;1275;25255;-82
2023/01/23 03:03:41;;;;;;;6.00;4.20;;;;;;;1.23;94.74;96468.33;106736;1275;22630;-81
2023/01/23 03:06:10;;;;;;;6.20;3.10;;;;;;;1.19;94.59;96472.35;106816;1275;22522;-82
2023/01/23 03:08:46;;;;;;;3.90;2.80;;;;;;;1.12;94.26;96475.05;106824;1275;25506;-82
2023/01/23 03:11:17;;;;;;;10.30;5.10;;;;;;;1.01;94.21;96472.64;106661;1275;25265;-81
2023/01/23 03:13:46;;;;;;;3.50;3.00;;;;;;;0.97;94.37;96472.16;106737;1275;24350;-82
2023/01/23 03:16:14;;;;;;;6.70;3.60;;;;;;;0.91;94.26;96472.30;106837;1275;22528;-82
2023/01/23 03:18:43;;;;;;;4.30;2.70;;;;;;;0.85;94.33;96474.20;106653;1275;22636;-82
2023/01/23 03:21:21;;;;;;;4.30;2.30;;;;;;;0.78;94.12;96471.90;106650;1275;22524;-82
2023/01/23 03:23:50;;;;;;;5.90;2.80;;;;;;;0.70;94.03;96468.66;106799;1275;25437;-82
2023/01/23 03:26:18;;;;;;;4.00;2.20;;;;;;;0.62;93.94;96473.95;106636;1275;22538;-82
2023/01/23 03:31:34;;;;;;;3.20;2.10;;;;;;;0.46;93.96;96471.49;106662;1275;22510;-83
2023/01/23 03:34:03;;;;;;;1.80;1.20;;;;;;;0.40;93.95;96470.44;106709;1275;24926;-83
2023/01/23 03:36:36;;;;;;;1.90;1.70;;;;;;;0.35;94.07;96469.91;106672;1266;25424;-83
2023/01/23 03:41:53;;;;;;;1.40;1.20;;;;;;;0.27;94.29;96468.06;106798;1275;23364;-83
2023/01/23 03:44:22;;;;;;;5.40;3.20;;;;;;;0.15;93.82;96464.36;106863;1275;22524;-83
2023/01/23 03:46:51;;;;;;;16.50;8.80;;;;;;;0.09;94.03;96461.05;106828;1275;24255;-82
2023/01/23 03:49:20;;;;;;;4.40;2.60;;;;;;;0.09;94.52;96460.20;106725;1275;22533;-83
2023/01/23 03:51:51;;;;;;;3.80;2.60;;;;;;;0.09;94.48;96462.79;106824;1275;22524;-82
2023/01/23 03:54:20;;;;;;;14.10;5.20;;;;;;;0.07;94.77;96463.38;106668;1275;24379;-82
2023/01/23 03:56:48;;;;;;;10.40;5.40;;;;;;;0.10;94.93;96465.58;106715;1275;24229;-82
2023/01/23 03:59:36;;;;;;;11.10;4.40;;;;;;;0.16;95.57;96461.65;106676;1275;22524;-82
2023/01/23 04:02:04;;;;;;;20.80;8.60;;;;;;;0.23;95.87;96467.59;106628;1275;23915;-82
2023/01/23 04:04:34;;;;;;;11.20;6.20;;;;;;;0.27;96.34;96468.23;106815;1275;25340;-82
2023/01/23 04:07:04;;;;;;;10.90;4.90;;;;;;;0.28;96.65;96472.79;106672;1275;25321;-82
2023/01/23 04:09:33;;;;;;;13.60;7.20;;;;;;;0.30;96.72;96473.21;106744;1275;24240;-82
2023/01/23 04:12:02;;;;;;;9.30;6.30;;;;;;;0.34;96.91;96474.02;106859;1275;24055;-82
2023/01/23 04:14:36;;;;;;;21.60;12.60;;;;;;;0.36;97.23;96477.05;106778;1275;25535;-82
2023/01/23 04:17:06;;;;;;;18.40;9.70;;;;;;;0.36;97.24;96485.70;106644;1275;22527;-82
2023/01/23 04:19:34;;;;;;;9.30;5.60;;;;;;;0.34;97.23;96488.74;106657;1275;22650;-83
2023/01/23 04:22:03;;;;;;;8.70;5.00;;;;;;;0.33;97.35;96483.52;106502;1275;22636;-83
2023/01/23 04:24:37;;;;;;;16.30;8.70;;;;;;;0.33;97.16;96488.70;106638;1275;25217;-82
2023/01/23 04:27:05;;;;;;;22.70;12.70;;;;;;;0.31;97.19;96489.48;106745;1275;25392;-82
2023/01/23 04:29:34;;;;;;;22.80;12.70;;;;;;;0.29;97.18;96488.38;106825;1275;22531;-83
2023/01/23 04:32:03;;;;;;;18.50;11.00;;;;;;;0.30;97.01;96488.95;106653;1275;25300;-82
2023/01/23 04:34:34;;;;;;;7.70;4.70;;;;;;;0.31;96.94;96492.45;106629;1275;22577;-82
2023/01/23 04:37:02;;;;;;;9.50;5.90;;;;;;;0.29;97.02;96489.07;106630;1275;24216;-82
2023/01/23 04:39:31;;;;;;;5.30;3.30;;;;;;;0.30;96.83;96495.00;106592;1275;22640;-82
2023/01/23 04:42:01;;;;;;;4.40;2.80;;;;;;;0.34;96.89;96494.79;106768;1275;25602;-82
2023/01/23 04:44:49;;;;;;;6.10;4.10;;;;;;;0.49;97.61;96503.11;106859;1275;22531;-83
2023/01/23 04:47:46;;;;;;;11.10;6.70;;;;;;;0.59;97.52;96512.98;106964;1275;22521;-82
2023/01/23 04:50:16;;;;;;;7.50;4.50;;;;;;;0.59;97.12;96512.81;106915;1275;26057;-83
2023/01/23 04:52:46;;;;;;;6.30;3.10;;;;;;;0.58;96.85;96515.55;106827;1275;22846;-82
2023/01/23 04:55:14;;;;;;;8.50;5.20;;;;;;;0.53;96.40;96520.73;106678;1275;25463;-83
2023/01/23 04:57:43;;;;;;;11.10;6.00;;;;;;;0.48;96.15;96518.64;106770;1275;22597;-82
2023/01/23 05:00:25;;;;;;;6.50;4.10;;;;;;;0.46;96.08;96515.27;107034;1275;22653;-82
2023/01/23 05:02:55;;;;;;;7.00;4.30;;;;;;;0.42;96.03;96513.77;107066;1275;23873;-83
2023/01/23 05:05:24;;;;;;;10.40;5.30;;;;;;;0.39;96.15;96512.13;106931;1275;22849;-83
2023/01/23 05:07:55;;;;;;;16.20;9.40;;;;;;;0.41;96.47;96512.88;106684;1275;23047;-82
2023/01/23 05:10:23;;;;;;;8.50;6.40;;;;;;;0.42;96.61;96510.13;106643;1275;22553;-82
2023/01/23 05:12:54;;;;;;;16.60;11.70;;;;;;;0.39;96.77;96511.61;106751;1275;24208;-82
2023/01/23 05:15:22;;;;;;;28.20;14.50;;;;;;;0.35;96.51;96517.16;106721;1267;22590;-83
2023/01/23 05:17:51;;;;;;;52.70;25.00;;;;;;;0.26;96.79;96522.04;106850;1275;25584;-82
2023/01/23 05:20:22;;;;;;;50.30;25.00;;;;;;;0.25;96.73;96515.77;106720;1270;24310;-83
2023/01/23 05:22:53;;;;;;;43.70;21.50;;;;;;;0.28;96.72;96512.23;106793;1275;24227;-82
2023/01/23 05:25:28;;;;;;;8.10;5.20;;;;;;;0.33;96.84;96517.08;106619;1275;25385;-82
2023/01/23 05:27:58;;;;;;;11.00;6.20;;;;;;;0.46;97.30;96522.41;106968;1275;25446;-83
2023/01/23 05:30:27;;;;;;;28.10;13.60;;;;;;;0.56;97.54;96528.45;107061;1275;22645;-83
2023/01/23 05:33:05;;;;;;;30.60;15.90;;;;;;;0.49;96.63;96525.45;106796;1254;22610;-82
2023/01/23 05:35:34;;;;;;;33.50;14.20;;;;;;;0.48;96.45;96528.67;106793;1275;25220;-82
2023/01/23 05:38:02;;;;;;;33.90;16.70;;;;;;;0.47;96.08;96527.95;106684;1275;22524;-82
2023/01/23 05:40:36;;;;;;;32.50;19.90;;;;;;;0.44;96.10;96530.80;106671;1256;22528;-83
2023/01/23 05:43:26;;;;;;;22.20;12.60;;;;;;;0.46;96.20;96522.89;106681;1275;24231;-82
2023/01/23 05:45:54;;;;;;;31.30;16.00;;;;;;;0.49;96.32;96532.89;106690;1275;22636;-83
2023/01/23 05:48:31;;;;;;;29.30;16.80;;;;;;;0.46;95.93;96538.33;106693;1275;24261;-82
2023/01/23 05:51:02;;;;;;;30.10;15.70;;;;;;;0.44;95.73;96539.11;106651;1275;26628;-82
2023/01/23 05:53:31;;;;;;;46.40;23.80;;;;;;;0.40;95.38;96537.44;106661;1275;25261;-83
2023/01/23 05:56:04;;;;;;;55.30;28.00;;;;;;;0.35;95.20;96533.46;106761;1264;22556;-83
2023/01/23 05:58:33;;;;;;;53.60;28.80;;;;;;;0.31;95.18;96531.57;106792;1275;25701;-83
2023/01/23 06:01:28;;;;;;;63.60;31.60;;;;;;;0.22;95.43;96543.69;106675;1263;22529;-83
2023/01/23 06:04:28;;;;;;;58.40;24.50;;;;;;;0.20;95.40;96552.61;106534;1275;25275;-82
2023/01/23 06:07:16;;;;;;;56.20;26.40;;;;;;;0.18;95.29;96542.84;106792;1275;22623;-83
2023/01/23 06:09:45;;;;;;;64.20;31.90;;;;;;;0.13;94.94;96545.63;106646;1275;24262;-83
2023/01/23 06:12:14;;;;;;;56.50;30.50;;;;;;;0.06;95.06;96548.81;106824;1275;25883;-83
2023/01/23 06:14:42;;;;;;;51.20;27.90;;;;;;;0.01;95.51;96557.78;106783;1275;24624;-83
2023/01/23 06:17:11;;;;;;;60.20;29.70;;;;;;;-0.01;95.63;96559.30;106651;1275;25498;-83
2023/01/23 06:19:39;;;;;;;27.20;14.60;;;;;;;0.04;95.83;96565.48;106692;1275;22523;-83
2023/01/23 06:22:08;;;;;;;24.40;12.60;;;;;;;0.07;95.65;96564.74;106611;1275;22518;-83
2023/01/23 06:24:51;;;;;;;41.00;17.50;;;;;;;0.07;95.43;96565.27;106661;1275;22533;-83
2023/01/23 06:27:20;;;;;;;51.10;22.20;;;;;;;0.04;95.10;96569.16;106695;1275;25274;-83
2023/01/23 06:29:48;;;;;;;38.50;18.20;;;;;;;0.02;95.01;96576.16;106605;1275;22527;-83
2023/01/23 06:32:16;;;;;;;46.00;24.50;;;;;;;0.01;94.97;96576.11;106681;1275;22544;-82
2023/01/23 06:34:45;;;;;;;46.80;22.50;;;;;;;0.01;94.90;96584.94;107083;1275;22531;-83
2023/01/23 06:37:13;;;;;;;33.30;17.80;;;;;;;0.03;95.35;96590.55;107028;1275;24237;-83
2023/01/23 06:39:42;;;;;;;69.30;31.70;;;;;;;0.09;95.54;96590.25;107093;1275;22544;-83
2023/01/23 06:42:11;;;;;;;254.00;105.00;;;;;;;0.06;94.94;96591.18;106798;1275;24193;-82
2023/01/23 06:44:42;;;;;;;92.50;45.20;;;;;;;-0.02;94.53;96596.42;106660;1275;25357;-83
2023/01/23 06:47:11;;;;;;;63.00;34.80;;;;;;;-0.07;94.85;96604.17;106780;1275;22581;-83
2023/01/23 06:49:40;;;;;;;50.80;26.80;;;;;;;-0.05;95.12;96605.83;106732;1275;24561;-83
2023/01/23 06:52:08;;;;;;;42.70;24.20;;;;;;;-0.01;95.35;96606.31;106385;1275;637220;-83
2023/01/23 06:54:38;;;;;;;139.80;52.00;;;;;;;0.03;96.20;96605.61;107127;1264;24249;-83
2023/01/23 06:57:06;;;;;;;82.80;40.30;;;;;;;0.08;96.26;96600.63;107071;1275;25400;-83
2023/01/23 06:59:35;;;;;;;81.00;41.10;;;;;;;0.07;95.81;96599.89;107005;1275;22665;-83
2023/01/23 07:02:04;;;;;;;113.40;55.10;;;;;;;0.01;95.99;96594.12;107062;1275;24609;-83
2023/01/23 07:04:38;;;;;;;80.30;48.30;;;;;;;-0.03;96.44;96598.63;107005;1275;22529;-83
2023/01/23 07:07:06;;;;;;;56.80;35.50;;;;;;;0.00;96.92;96598.23;106664;1275;23082;-83
2023/01/23 07:09:34;;;;;;;47.50;26.90;;;;;;;0.03;97.24;96600.23;106721;1275;25399;-83
2023/01/23 07:12:22;;;;;;;58.90;30.30;;;;;;;0.02;97.33;96603.33;106742;1275;24196;-83
2023/01/23 07:14:51;;;;;;;194.00;77.50;;;;;;;0.01;97.46;96603.10;106765;1275;22637;-83
2023/01/23 07:17:26;;;;;;;209.00;81.60;;;;;;;0.05;97.82;96605.15;106729;1275;22804;-83
2023/01/23 07:19:54;;;;;;;114.50;52.20;;;;;;;0.13;97.92;96602.51;106655;1275;22532;-83
2023/01/23 07:22:22;;;;;;;77.10;35.50;;;;;;;0.18;97.68;96602.89;106666;1275;22523;-83
2023/01/23 07:24:51;;;;;;;89.30;48.30;;;;;;;0.19;97.53;96604.48;106759;1275;25220;-83
2023/01/23 07:27:19;;;;;;;73.00;38.00;;;;;;;0.25;97.36;96605.90;106832;1275;22890;-83
2023/01/23 07:29:47;;;;;;;58.60;30.10;;;;;;;0.30;97.33;96604.70;106710;1275;22529;-83
2023/01/23 07:32:15;;;;;;;93.60;46.90;;;;;;;0.31;97.07;96600.95;106711;1275;22534;-83
2023/01/23 07:34:43;;;;;;;118.20;61.90;;;;;;;0.30;97.03;96600.06;106651;1275;22544;-78
2023/01/23 07:37:11;;;;;;;118.90;62.00;;;;;;;0.35;96.97;96603.18;106728;1275;25406;-83
2023/01/23 07:39:39;;;;;;;139.60;80.40;;;;;;;0.41;97.09;96611.53;106744;1275;24196;-83
2023/01/23 07:42:07;;;;;;;129.90;76.80;;;;;;;0.44;97.16;96609.39;106809;1275;25369;-83
2023/01/23 07:44:35;;;;;;;85.00;48.80;;;;;;;0.50;97.36;96609.60;106679;1275;24887;-83
2023/01/23 07:47:03;;;;;;;119.40;68.40;;;;;;;0.54;98.18;96610.42;106625;1275;22642;-83
2023/01/23 07:49:31;;;;;;;97.40;56.40;;;;;;;0.57;98.41;96616.42;106682;1275;22640;-83
2023/01/23 07:51:59;;;;;;;113.20;66.90;;;;;;;0.59;98.63;96612.88;106717;1275;23134;-83
2023/01/23 07:54:27;;;;;;;84.20;49.90;;;;;;;0.63;98.84;96612.00;106606;1275;25344;-83
2023/01/23 07:56:56;;;;;;;65.50;42.20;;;;;;;0.71;98.75;96611.75;106801;1275;22742;-83
2023/01/23 07:59:24;;;;;;;57.20;39.80;;;;;;;0.76;98.63;96613.33;107045;1275;23877;-82
2023/01/23 08:01:52;;;;;;;60.30;35.60;;;;;;;0.85;98.67;96610.17;107077;1275;25272;-83
2023/01/23 08:04:20;;;;;;;87.90;50.50;;;;;;;0.93;98.63;96613.89;107095;1275;24219;-84
2023/01/23 08:06:48;;;;;;;39.80;24.60;;;;;;;1.00;98.55;96615.36;107010;1275;25369;-83
2023/01/23 08:09:16;;;;;;;55.30;34.00;;;;;;;1.06;98.33;96618.53;107013;1275;22520;-83
2023/01/23 08:11:44;;;;;;;73.70;37.40;;;;;;;1.11;98.15;96619.55;106807;1275;24258;-83
2023/01/23 08:14:13;;;;;;;129.50;66.20;;;;;;;1.15;98.12;96621.09;106780;1275;22569;-83
2023/01/23 08:16:41;;;;;;;62.00;35.00;;;;;;;1.22;98.21;96624.79;106822;1275;22669;-83
2023/01/23 08:19:09;;;;;;;71.50;39.30;;;;;;;1.34;98.68;96623.62;106769;1275;24558;-82
2023/01/23 08:21:37;;;;;;;84.70;44.10;;;;;;;1.44;99.31;96622.73;106817;1275;22529;-82
2023/01/23 08:24:05;;;;;;;95.10;47.40;;;;;;;1.48;99.18;96619.24;106824;1275;25202;-84
2023/01/23 08:26:34;;;;;;;65.20;36.40;;;;;;;1.54;99.18;96618.90;106683;1275;22553;-83
2023/01/23 08:29:03;;;;;;;60.30;33.60;;;;;;;1.71;99.37;96622.77;106778;1275;22639;-83
2023/01/23 08:31:31;;;;;;;38.20;21.60;;;;;;;1.86;99.32;96626.00;106673;1275;24281;-83
2023/01/23 08:33:59;;;;;;;50.80;29.20;;;;;;;2.01;99.18;96626.81;106628;1275;22618;-84
2023/01/23 08:36:27;;;;;;;45.40;25.20;;;;;;;2.24;99.60;96621.80;106883;1275;25353;-83
2023/01/23 08:38:55;;;;;;;43.70;28.20;;;;;;;2.60;99.54;96620.60;106771;1275;25346;-84
2023/01/23 08:41:24;;;;;;;25.10;14.60;;;;;;;2.94;98.81;96616.50;106646;1275;22535;-84
2023/01/23 08:43:52;;;;;;;47.80;23.90;;;;;;;3.24;97.72;96616.77;106749;1275;22553;-83
2023/01/23 08:46:20;;;;;;;20.70;10.10;;;;;;;3.51;97.45;96620.92;106714;1273;24227;-82
2023/01/23 08:48:48;;;;;;;29.50;12.60;;;;;;;3.76;95.35;96618.25;106740;1275;24217;-83
2023/01/23 08:51:16;;;;;;;25.60;12.50;;;;;;;3.98;94.08;96617.38;106741;1275;22527;-82
2023/01/23 08:53:45;;;;;;;12.80;8.10;;;;;;;4.15;93.49;96617.92;106820;1275;24275;-83
2023/01/23 08:56:15;;;;;;;29.50;18.00;;;;;;;4.30;94.01;96613.23;106794;1275;24071;-82
2023/01/23 08:58:45;;;;;;;24.60;15.30;;;;;;;4.47;91.17;96615.00;106831;1275;25233;-83
2023/01/23 09:01:19;;;;;;;24.50;16.80;;;;;;;4.61;90.75;96611.80;106686;1275;22611;-82
2023/01/23 09:03:47;;;;;;;12.10;7.70;;;;;;;4.74;89.63;96606.32;106674;1275;25384;-83
2023/01/23 09:06:19;;;;;;;9.60;7.50;;;;;;;4.86;89.29;96606.91;106779;1275;22550;-83
2023/01/23 09:08:48;;;;;;;13.70;7.90;;;;;;;4.99;90.28;96605.08;106995;1264;22727;-83
2023/01/23 09:11:17;;;;;;;19.70;11.00;;;;;;;5.12;89.35;96606.36;106972;1275;22761;-84
2023/01/23 09:13:46;;;;;;;14.10;7.90;;;;;;;5.27;89.89;96603.14;107084;1275;25230;-86
2023/01/23 09:16:14;;;;;;;17.40;10.50;;;;;;;5.34;87.15;96603.10;106757;1275;22643;-86
2023/01/23 09:18:43;;;;;;;28.80;17.00;;;;;;;5.45;87.30;96607.30;106667;1267;24370;-85
2023/01/23 09:21:15;;;;;;;17.30;13.00;;;;;;;5.53;87.19;96602.55;106826;1275;24240;-85
2023/01/23 09:23:43;;;;;;;14.60;8.50;;;;;;;5.63;87.67;96602.03;106789;1275;22555;-84
2023/01/23 09:26:13;;;;;;;16.30;10.70;;;;;;;5.77;88.17;96610.12;106719;1275;23021;-84
2023/01/23 09:28:42;;;;;;;10.70;7.40;;;;;;;5.87;87.13;96607.48;106714;1275;25284;-84
2023/01/23 09:31:13;;;;;;;19.00;10.20;;;;;;;5.96;87.59;96603.83;106723;1275;22538;-84
2023/01/23 09:33:41;;;;;;;9.20;7.00;;;;;;;5.96;86.53;96602.60;106813;1275;22528;-85
2023/01/23 09:36:10;;;;;;;15.20;8.70;;;;;;;5.87;84.72;96605.21;106662;1275;22523;-84
2023/01/23 09:38:38;;;;;;;21.30;14.70;;;;;;;5.83;85.73;96600.44;106848;1275;24185;-85
2023/01/23 09:41:28;;;;;;;20.60;14.60;;;;;;;5.79;85.66;96608.58;106750;1275;22555;-85
2023/01/23 09:44:06;;;;;;;19.40;12.00;;;;;;;5.76;85.01;96605.74;106756;1275;25233;-84
2023/01/23 09:46:41;;;;;;;22.20;14.00;;;;;;;5.77;84.68;96605.58;106699;1275;22532;-84
2023/01/23 09:49:40;;;;;;;24.50;14.70;;;;;;;5.76;84.98;96607.30;106772;1275;25216;-84
2023/01/23 09:52:16;;;;;;;24.80;14.00;;;;;;;5.77;85.60;96607.31;106652;1275;22759;-84
2023/01/23 09:54:47;;;;;;;19.90;13.50;;;;;;;5.82;85.93;96604.97;106676;1275;25262;-85
2023/01/23 09:57:20;;;;;;;16.70;11.10;;;;;;;5.89;85.81;96598.96;106830;1267;25451;-84
2023/01/23 10:00:02;;;;;;;19.30;9.60;;;;;;;6.06;84.85;96602.05;106719;1275;23879;-84
2023/01/23 10:02:31;;;;;;;11.20;6.80;;;;;;;6.26;83.01;96599.90;106885;1275;23912;-84
2023/01/23 10:05:01;;;;;;;15.90;8.90;;;;;;;6.47;83.58;96597.38;106691;1269;25227;-84
2023/01/23 10:07:56;;;;;;;28.60;16.40;;;;;;;6.69;82.26;96599.59;106744;1275;24364;-84
2023/01/23 10:10:46;;;;;;;13.10;8.10;;;;;;;6.98;81.15;96593.83;106686;1275;22676;-85
2023/01/23 10:13:21;;;;;;;13.40;8.40;;;;;;;7.44;79.68;96593.95;106743;1275;24250;-83
2023/01/23 10:16:03;;;;;;;20.30;17.70;;;;;;;7.82;78.03;96588.34;106751;1270;22596;-84
2023/01/23 10:18:54;;;;;;;15.30;10.10;;;;;;;8.30;79.57;96579.56;106649;1275;22541;-84
2023/01/23 10:21:32;;;;;;;16.50;9.10;;;;;;;8.88;79.62;96578.46;106761;1275;25343;-82
2023/01/23 10:24:00;;;;;;;11.00;6.00;;;;;;;9.24;73.76;96580.16;106761;1275;22524;-81
2023/01/23 10:26:38;;;;;;;12.50;7.70;;;;;;;9.62;75.23;96576.36;106686;1275;22521;-81
2023/01/23 10:29:31;;;;;;;10.20;6.90;;;;;;;9.94;71.66;96571.29;106644;1275;22785;-82
2023/01/23 10:32:01;;;;;;;9.10;6.50;;;;;;;10.36;69.95;96565.80;106726;1275;22520;-83
2023/01/23 10:34:52;;;;;;;12.50;7.80;;;;;;;10.62;69.09;96563.45;106800;1275;22529;-82
2023/01/23 10:37:49;;;;;;;11.30;9.60;;;;;;;10.91;68.25;96562.64;107036;1274;25220;-81
2023/01/23 10:43:19;;;;;;;12.90;9.60;;;;;;;11.46;66.00;96557.92;106741;1275;22524;-82
2023/01/23 10:45:48;;;;;;;14.60;10.30;;;;;;;11.77;65.11;96550.67;106812;1275;26545;-81
2023/01/23 10:48:42;;;;;;;10.00;5.70;;;;;;;12.24;64.87;96547.27;106749;1275;22559;-81
2023/01/23 10:51:28;;;;;;;;;;;;;;;12.83;65.33;96545.57;106829;1263;22511;-81
2023/01/23 10:54:17;;;;;;;9.70;7.90;;;;;;;13.00;59.91;96536.16;106867;1275;25457;-81
2023/01/23 10:57:23;;;;;;;10.00;6.00;;;;;;;13.35;61.73;96530.61;106793;1275;25217;-81
2023/01/23 11:00:03;;;;;;;14.00;11.90;;;;;;;13.53;58.88;96526.80;106720;1275;23276;-79
2023/01/23 11:02:34;;;;;;;12.70;6.10;;;;;;;13.68;58.68;96525.34;106625;1275;25461;-79
2023/01/23 11:05:37;;;;;;;4.70;3.70;;;;;;;13.97;59.84;96522.90;106744;1275;24212;-79
2023/01/23 11:08:29;;;;;;;4.70;3.00;;;;;;;14.39;60.09;96516.67;106780;1251;25152;-79
2023/01/23 11:11:24;;;;;;;5.40;3.20;;;;;;;14.61;55.71;96514.70;106743;1275;25223;-79
2023/01/23 11:14:05;;;;;;;6.10;3.60;;;;;;;14.90;55.06;96514.63;106825;1275;24333;-79
2023/01/23 11:16:34;;;;;;;5.40;3.20;;;;;;;15.22;54.60;96500.64;106688;1275;22534;-78
2023/01/23 11:19:06;;;;;;;4.00;3.20;;;;;;;15.45;52.57;96501.20;106666;1275;22545;-78
2023/01/23 11:21:37;;;;;;;5.60;3.50;;;;;;;15.58;50.89;96494.15;106633;1275;22540;-78
2023/01/23 11:24:23;;;;;;;5.60;3.10;;;;;;;15.75;51.87;96494.12;106745;1257;25268;-79
2023/01/23 11:27:19;;;;;;;8.70;3.30;;;;;;;15.94;49.77;96493.13;106742;1275;22518;-78
2023/01/23 11:30:07;;;;;;;6.10;3.10;;;;;;;16.14;49.56;96492.97;106744;1275;22530;-80
2023/01/23 11:32:52;;;;;;;4.90;3.10;;;;;;;16.12;48.39;96491.96;106773;1275;24247;-80
2023/01/23 11:35:41;;;;;;;4.20;2.90;;;;;;;16.10;49.11;96492.20;106733;1275;22525;-82
2023/01/23 11:38:14;;;;;;;5.00;3.00;;;;;;;16.31;47.61;96488.80;106692;1275;22602;-81
2023/01/23 11:40:47;;;;;;;5.30;2.70;;;;;;;16.41;46.87;96488.52;106845;1275;24349;-81
2023/01/23 11:43:16;;;;;;;5.90;2.80;;;;;;;16.57;47.38;96488.09;106738;1275;25335;-81
2023/01/23 11:46:06;;;;;;;7.00;3.80;;;;;;;16.87;46.89;96490.45;106792;1275;22649;-80
2023/01/23 11:48:48;;;;;;;5.30;3.00;;;;;;;17.02;45.02;96482.02;106656;1275;24202;-82
2023/01/23 11:51:36;;;;;;;4.30;3.30;;;;;;;17.08;44.97;96477.92;106764;1275;24064;-82
2023/01/23 11:54:31;;;;;;;4.50;3.30;;;;;;;17.42;45.17;96477.95;106754;1275;22542;-82
2023/01/23 11:57:08;;;;;;;4.50;3.00;;;;;;;17.52;44.21;96474.95;106687;1275;22598;-82
2023/01/23 11:59:45;;;;;;;4.10;2.90;;;;;;;17.63;45.18;96473.19;106800;1275;24251;-83
2023/01/23 12:02:40;;;;;;;5.30;3.50;;;;;;;17.89;44.11;96473.96;106846;1275;24379;-83